createdAt,value
2019-01-16T00:05:04.084Z,99761.73
2019-01-16T00:10:53.944Z,99769.36
2019-01-16T00:16:31.894Z,99774.75
2019-01-16T00:22:22.814Z,99786.77
2019-01-16T00:28:02.299Z,99796.86
2019-01-16T00:33:37.795Z,99789.19
2019-01-16T00:39:27.800Z,99801.88
2019-01-16T00:44:56.781Z,99805.52
2019-01-16T00:50:31.461Z,99809.22
2019-01-16T00:56:04.669Z,99817.36
2019-01-16T01:01:42.806Z,99817.74
2019-01-16T01:07:24.386Z,99831.23
2019-01-16T01:12:55.960Z,99833.64
2019-01-16T01:18:32.466Z,99840.62
2019-01-16T01:24:07.609Z,99842.30
2019-01-16T01:29:45.818Z,99843.78
2019-01-16T01:35:15.651Z,99846.98
2019-01-16T01:40:47.124Z,99840.68
2019-01-16T01:46:19.795Z,99837.75
2019-01-16T01:52:04.359Z,99827.34
2019-01-16T01:57:35.069Z,99835.72
2019-01-16T02:03:15.513Z,99821.73
2019-01-16T02:08:49.315Z,99813.48
2019-01-16T02:14:21.678Z,99811.78
2019-01-16T02:20:00.326Z,99798.62
2019-01-16T02:25:37.476Z,99796.78
2019-01-16T02:31:08.536Z,99789.95
2019-01-16T02:36:37.684Z,99782.53
2019-01-16T02:42:15.404Z,99781.45
2019-01-16T02:47:49.138Z,99784.31
2019-01-16T02:53:22.311Z,99785.93
2019-01-16T02:58:48.971Z,99779.58
2019-01-16T03:04:36.186Z,99775.97
2019-01-16T03:10:15.722Z,99777.05
2019-01-16T03:15:47.343Z,99771.09
2019-01-16T03:21:27.653Z,99758.88
2019-01-16T03:27:09.185Z,99757.56
2019-01-16T03:32:43.243Z,99766.27
2019-01-16T03:38:26.975Z,99752.55
2019-01-16T03:43:56.067Z,99765.13
2019-01-16T03:49:29.459Z,99772.16
2019-01-16T03:55:02.237Z,99785.63
2019-01-16T04:00:36.269Z,99780.83
2019-01-16T04:06:04.538Z,99781.43
2019-01-16T04:11:37.448Z,99786.76
2019-01-16T04:17:17.677Z,99772.91
2019-01-16T04:22:54.906Z,99763.94
2019-01-16T04:28:44.819Z,99767.05
2019-01-16T04:34:24.250Z,99755.63
2019-01-16T04:39:55.962Z,99759.98
2019-01-16T04:45:28.236Z,99744.81
2019-01-16T04:51:01.157Z,99732.82
2019-01-16T04:56:32.182Z,99747.03
2019-01-16T05:02:11.397Z,99757.02
2019-01-16T05:07:41.547Z,99758.39
2019-01-16T05:13:20.882Z,99755.84
2019-01-16T05:18:52.915Z,99776.05
2019-01-16T05:24:37.799Z,99766.98
2019-01-16T05:30:23.486Z,99774.75
2019-01-16T05:36:10.032Z,99778.11
2019-01-16T05:41:59.812Z,99776.56
2019-01-16T05:47:29.674Z,99792.64
2019-01-16T05:53:04.651Z,99792.84
2019-01-16T05:58:38.533Z,99788.42
2019-01-16T06:04:12.360Z,99793.70
2019-01-16T06:09:47.545Z,99790.23
2019-01-16T06:15:34.094Z,99795.59
2019-01-16T06:21:09.065Z,99791.56
2019-01-16T06:32:33.805Z,99796.45
2019-01-16T06:38:06.300Z,99795.05
2019-01-16T06:43:50.315Z,99793.53
2019-01-16T06:49:23.912Z,99796.94
2019-01-16T06:54:54.562Z,99781.50
2019-01-16T07:00:25.679Z,99766.69
2019-01-16T07:06:06.903Z,99792.14
2019-01-16T07:11:40.636Z,99744.16
2019-01-16T07:17:08.025Z,99761.67
2019-01-16T07:22:46.078Z,99761.67
2019-01-16T07:28:24.598Z,99761.34
2019-01-16T07:34:14.087Z,99758.14
2019-01-16T07:39:46.220Z,99751.48
2019-01-16T07:45:16.810Z,99737.76
2019-01-16T07:50:59.796Z,99725.09
2019-01-16T07:56:33.674Z,99730.84
2019-01-16T08:02:09.265Z,99726.57
2019-01-16T08:07:42.013Z,99725.19
2019-01-16T08:13:20.863Z,99737.58
2019-01-16T08:18:42.608Z,99734.17
2019-01-16T08:24:12.228Z,99726.00
2019-01-16T08:29:48.913Z,99734.97
2019-01-16T08:35:40.184Z,99721.10
2019-01-16T08:41:18.130Z,99711.23
2019-01-16T08:46:54.976Z,99707.39
2019-01-16T08:52:39.308Z,99701.94
2019-01-16T08:58:31.019Z,99682.41
2019-01-16T09:04:16.102Z,99679.27
2019-01-16T09:09:52.927Z,99664.95
2019-01-16T09:15:34.995Z,99661.63
2019-01-16T09:21:09.278Z,99640.67
2019-01-16T09:26:54.292Z,99627.72
2019-01-16T09:32:33.540Z,99621.63
2019-01-16T09:38:07.474Z,99617.02
2019-01-16T09:43:42.896Z,99607.26
2019-01-16T09:49:20.634Z,99603.05
2019-01-16T09:54:54.108Z,99603.39
2019-01-16T10:00:38.732Z,99573.56
2019-01-16T10:06:04.113Z,99571.05
2019-01-16T10:11:55.662Z,99559.70
2019-01-16T10:17:33.786Z,99556.05
2019-01-16T10:23:02.355Z,99551.70
2019-01-16T10:28:47.453Z,99546.64
2019-01-16T10:34:15.272Z,99539.30
2019-01-16T10:39:46.537Z,99518.05
2019-01-16T10:45:21.693Z,99515.52
2019-01-16T10:51:08.185Z,99497.13
2019-01-16T10:56:42.481Z,99501.98
2019-01-16T11:02:18.151Z,99512.48
2019-01-16T11:07:47.989Z,99510.47
2019-01-16T11:13:16.506Z,99499.39
2019-01-16T11:18:58.588Z,99491.73
2019-01-16T11:24:21.995Z,99490.50
2019-01-16T11:29:35.752Z,99490.81
2019-01-16T11:35:11.879Z,99487.27
2019-01-16T11:40:52.444Z,99488.91
2019-01-16T11:46:25.911Z,99490.22
2019-01-16T11:52:05.468Z,99493.08
2019-01-16T11:57:33.283Z,99496.08
2019-01-16T12:03:15.148Z,99498.52
2019-01-16T12:08:59.975Z,99505.21
2019-01-16T12:14:28.308Z,99502.19
2019-01-16T12:20:02.670Z,99512.30
2019-01-16T12:25:31.326Z,99508.64
2019-01-16T12:31:00.395Z,99531.73
2019-01-16T12:36:28.509Z,99535.68
2019-01-16T12:42:01.566Z,99563.91
2019-01-16T12:47:36.288Z,99568.92
2019-01-16T12:53:02.648Z,99566.33
2019-01-16T12:58:38.903Z,99568.75
2019-01-16T13:04:20.761Z,99580.25
2019-01-16T13:09:50.989Z,99582.89
2019-01-16T13:15:20.494Z,99601.31
2019-01-16T13:20:57.669Z,99591.05
2019-01-16T13:26:33.548Z,99593.48
2019-01-16T13:32:06.119Z,99610.45
2019-01-16T13:37:51.386Z,99602.86
2019-01-16T13:43:30.414Z,99618.05
2019-01-16T13:49:16.147Z,99598.16
2019-01-16T13:55:00.223Z,99609.73
2019-01-16T14:00:55.804Z,99610.39
2019-01-16T14:06:40.194Z,99613.44
2019-01-16T14:12:24.088Z,99616.89
2019-01-16T14:17:52.774Z,99619.47
2019-01-16T14:23:40.063Z,99619.76
2019-01-16T14:29:11.757Z,99623.48
2019-01-16T14:34:36.703Z,99639.73
2019-01-16T14:40:07.055Z,99637.65
2019-01-16T14:45:39.397Z,99641.20
2019-01-16T14:51:06.699Z,99645.91
2019-01-16T14:56:43.884Z,99649.78
2019-01-16T15:02:14.757Z,99667.58
2019-01-16T15:07:59.264Z,99668.33
2019-01-16T15:13:25.995Z,99679.00
2019-01-16T15:18:57.598Z,99696.27
2019-01-16T15:24:28.615Z,99707.41
2019-01-16T15:29:59.330Z,99707.99
2019-01-16T15:35:34.938Z,99711.09
2019-01-16T15:41:05.899Z,99721.16
2019-01-16T15:46:29.792Z,99728.73
2019-01-16T15:52:03.808Z,99744.13
2019-01-16T15:57:44.614Z,99737.92
2019-01-16T16:03:26.843Z,99743.61
2019-01-16T16:09:01.462Z,99757.95
2019-01-16T16:14:52.439Z,99769.08
2019-01-16T16:20:22.914Z,99771.13
2019-01-16T16:26:01.781Z,99777.63
2019-01-16T16:31:34.085Z,99789.98
2019-01-16T16:37:10.389Z,99801.53
2019-01-16T16:42:45.194Z,99802.52
2019-01-16T16:48:23.075Z,99809.91
2019-01-16T16:54:08.639Z,99816.55
2019-01-16T16:59:54.077Z,99820.07
2019-01-16T17:11:52.560Z,99827.70
2019-01-16T17:17:28.848Z,99826.55
2019-01-16T17:23:16.928Z,99839.28
2019-01-16T17:28:45.374Z,99832.86
2019-01-16T17:34:17.081Z,99840.75
2019-01-16T17:39:57.620Z,99861.95
2019-01-16T17:45:24.116Z,99867.80
2019-01-16T17:50:57.051Z,99875.19
2019-01-16T17:56:38.324Z,99880.48
2019-01-16T18:02:24.445Z,99891.09
2019-01-16T18:07:53.125Z,99890.40
2019-01-16T18:13:38.932Z,99898.53
2019-01-16T18:19:11.971Z,99890.92
2019-01-16T18:24:44.843Z,99901.61
2019-01-16T18:36:44.450Z,99918.55
2019-01-16T18:42:43.174Z,99914.70
2019-01-16T18:48:25.961Z,99909.09
2019-01-16T18:54:05.393Z,99910.14
2019-01-16T18:59:47.625Z,99913.78
2019-01-16T19:11:43.513Z,99927.00
2019-01-16T19:17:27.270Z,99945.22
2019-01-16T20:11:59.766Z,100004.03
2019-01-16T20:17:43.741Z,100016.33
2019-01-16T20:23:13.838Z,100020.88
2019-01-16T20:29:03.699Z,100036.88
2019-01-16T20:34:52.923Z,100038.69
2019-01-16T20:40:37.732Z,100055.64
2019-01-16T20:46:12.797Z,100053.66
2019-01-16T20:52:03.291Z,100056.03
2019-01-16T20:58:10.642Z,100058.22
2019-01-16T21:10:00.202Z,100081.20
2019-01-16T21:15:57.131Z,100085.94
2019-01-16T21:21:36.640Z,100088.84
2019-01-16T21:27:16.414Z,100091.30
2019-01-16T21:33:10.537Z,100090.63
2019-01-16T21:38:39.531Z,100106.75
2019-01-16T21:44:38.902Z,100110.01
2019-01-16T21:50:15.958Z,100112.88
2019-01-16T21:56:10.724Z,100114.55
2019-01-16T22:01:47.496Z,100099.59
2019-01-16T22:07:35.644Z,100097.56
2019-01-16T22:13:10.331Z,100086.03
2019-01-16T22:19:05.657Z,100092.91
2019-01-16T22:29:47.793Z,100105.06
2019-01-16T22:35:54.540Z,100112.03
2019-01-16T22:41:39.988Z,100115.92
2019-01-16T22:47:34.684Z,100121.53
2019-01-16T22:53:05.869Z,100123.42
2019-01-16T22:58:42.874Z,100136.92
2019-01-16T23:04:30.588Z,100145.52
2019-01-16T23:10:13.465Z,100149.44
2019-01-16T23:15:51.631Z,100146.53
2019-01-16T23:21:38.212Z,100148.98
2019-01-16T23:27:12.147Z,100162.34
2019-01-16T23:32:49.465Z,100159.63
2019-01-16T23:38:43.564Z,100175.31
2019-01-16T23:44:28.923Z,100190.47
2019-01-16T23:50:00.473Z,100201.02
2019-01-16T23:55:35.699Z,100208.33
